sensor_id;sensor_type;location;lat;lon;timestamp;temperature;humidity
30280;DHT22;17097;50.916;5.344;2022-09-09T00:04:08;17.50;99.90
30280;DHT22;17097;50.916;5.344;2022-09-09T00:06:45;17.50;99.90
30280;DHT22;17097;50.916;5.344;2022-09-09T00:09:17;17.50;99.90
30280;DHT22;17097;50.916;5.344;2022-09-09T00:14:37;17.60;99.90
30280;DHT22;17097;50.916;5.344;2022-09-09T00:17:12;17.50;99.90
30280;DHT22;17097;50.916;5.344;2022-09-09T00:24:54;17.50;99.90
30280;DHT22;17097;50.916;5.344;2022-09-09T00:27:34;17.50;99.90
30280;DHT22;17097;50.916;5.344;2022-09-09T00:30:16;17.40;99.90
30280;DHT22;17097;50.916;5.344;2022-09-09T00:32:45;17.50;99.90
30280;DHT22;17097;50.916;5.344;2022-09-09T00:35:16;17.50;99.90
30280;DHT22;17097;50.916;5.344;2022-09-09T00:37:44;17.50;99.90
30280;DHT22;17097;50.916;5.344;2022-09-09T00:40:23;17.50;99.90
30280;DHT22;17097;50.916;5.344;2022-09-09T00:48:19;17.50;99.90
30280;DHT22;17097;50.916;5.344;2022-09-09T00:50:57;17.30;99.90
30280;DHT22;17097;50.916;5.344;2022-09-09T00:56:09;17.40;99.90
30280;DHT22;17097;50.916;5.344;2022-09-09T00:58:36;17.30;99.90
30280;DHT22;17097;50.916;5.344;2022-09-09T01:01:20;17.20;99.90
30280;DHT22;17097;50.916;5.344;2022-09-09T01:03:53;17.20;99.90
30280;DHT22;17097;50.916;5.344;2022-09-09T01:17:14;17.10;99.90
30280;DHT22;17097;50.916;5.344;2022-09-09T01:22:22;17.20;99.90
30280;DHT22;17097;50.916;5.344;2022-09-09T01:28:00;17.30;99.90
30280;DHT22;17097;50.916;5.344;2022-09-09T01:30:26;17.20;99.90
30280;DHT22;17097;50.916;5.344;2022-09-09T01:32:57;17.20;99.90
30280;DHT22;17097;50.916;5.344;2022-09-09T01:35:50;17.10;99.90
30280;DHT22;17097;50.916;5.344;2022-09-09T01:38:20;17.00;99.90
30280;DHT22;17097;50.916;5.344;2022-09-09T01:40:46;17.00;99.90
30280;DHT22;17097;50.916;5.344;2022-09-09T01:43:13;17.10;99.90
30280;DHT22;17097;50.916;5.344;2022-09-09T01:45:39;17.00;99.90
30280;DHT22;17097;50.916;5.344;2022-09-09T01:48:06;17.10;99.90
30280;DHT22;17097;50.916;5.344;2022-09-09T01:50:32;17.00;99.90
30280;DHT22;17097;50.916;5.344;2022-09-09T01:52:59;17.00;99.90
30280;DHT22;17097;50.916;5.344;2022-09-09T01:55:31;17.10;99.90
30280;DHT22;17097;50.916;5.344;2022-09-09T02:00:54;17.20;99.90
30280;DHT22;17097;50.916;5.344;2022-09-09T02:03:27;17.20;99.90
30280;DHT22;17097;50.916;5.344;2022-09-09T02:09:04;17.10;99.90
30280;DHT22;17097;50.916;5.344;2022-09-09T02:11:30;17.10;99.90
30280;DHT22;17097;50.916;5.344;2022-09-09T02:14:04;17.20;99.90
30280;DHT22;17097;50.916;5.344;2022-09-09T02:16:44;17.10;99.90
30280;DHT22;17097;50.916;5.344;2022-09-09T02:19:15;17.10;99.90
30280;DHT22;17097;50.916;5.344;2022-09-09T02:21:45;17.10;99.90
30280;DHT22;17097;50.916;5.344;2022-09-09T02:24:13;17.40;99.90
30280;DHT22;17097;50.916;5.344;2022-09-09T02:26:42;17.30;99.90
30280;DHT22;17097;50.916;5.344;2022-09-09T02:29:19;17.30;99.90
30280;DHT22;17097;50.916;5.344;2022-09-09T02:31:47;17.30;99.90
30280;DHT22;17097;50.916;5.344;2022-09-09T02:34:18;17.20;99.90
30280;DHT22;17097;50.916;5.344;2022-09-09T02:36:46;17.20;99.90
30280;DHT22;17097;50.916;5.344;2022-09-09T02:39:13;17.20;99.90
30280;DHT22;17097;50.916;5.344;2022-09-09T02:41:41;17.10;99.90
30280;DHT22;17097;50.916;5.344;2022-09-09T02:44:11;17.20;99.90
30280;DHT22;17097;50.916;5.344;2022-09-09T02:49:10;17.10;99.90
30280;DHT22;17097;50.916;5.344;2022-09-09T02:54:28;17.10;99.90
30280;DHT22;17097;50.916;5.344;2022-09-09T02:59:27;17.10;99.90
30280;DHT22;17097;50.916;5.344;2022-09-09T03:01:53;17.10;99.90
30280;DHT22;17097;50.916;5.344;2022-09-09T03:04:18;17.00;99.90
30280;DHT22;17097;50.916;5.344;2022-09-09T03:06:44;17.00;99.90
30280;DHT22;17097;50.916;5.344;2022-09-09T03:09:10;17.00;99.90
30280;DHT22;17097;50.916;5.344;2022-09-09T03:11:36;17.00;99.90
30280;DHT22;17097;50.916;5.344;2022-09-09T03:14:02;17.10;99.90
30280;DHT22;17097;50.916;5.344;2022-09-09T03:16:27;17.20;99.90
30280;DHT22;17097;50.916;5.344;2022-09-09T03:18:53;17.20;99.90
30280;DHT22;17097;50.916;5.344;2022-09-09T03:21:19;17.30;99.90
30280;DHT22;17097;50.916;5.344;2022-09-09T03:23:44;17.30;99.90
30280;DHT22;17097;50.916;5.344;2022-09-09T03:26:10;17.20;99.90
30280;DHT22;17097;50.916;5.344;2022-09-09T03:28:36;17.20;99.90
30280;DHT22;17097;50.916;5.344;2022-09-09T03:31:03;17.10;99.90
30280;DHT22;17097;50.916;5.344;2022-09-09T03:33:29;17.10;99.90
30280;DHT22;17097;50.916;5.344;2022-09-09T03:35:56;17.10;99.90
30280;DHT22;17097;50.916;5.344;2022-09-09T03:38:23;17.20;99.90
30280;DHT22;17097;50.916;5.344;2022-09-09T03:40:53;17.20;99.90
30280;DHT22;17097;50.916;5.344;2022-09-09T03:43:22;17.30;99.90
30280;DHT22;17097;50.916;5.344;2022-09-09T03:45:48;17.40;99.90
30280;DHT22;17097;50.916;5.344;2022-09-09T03:48:18;17.30;99.90
30280;DHT22;17097;50.916;5.344;2022-09-09T03:50:48;17.30;99.90
30280;DHT22;17097;50.916;5.344;2022-09-09T03:53:15;17.30;99.90
30280;DHT22;17097;50.916;5.344;2022-09-09T03:55:45;17.30;99.90
30280;DHT22;17097;50.916;5.344;2022-09-09T03:58:12;17.40;99.90
30280;DHT22;17097;50.916;5.344;2022-09-09T04:00:38;17.50;99.90
30280;DHT22;17097;50.916;5.344;2022-09-09T04:03:08;17.50;99.90
30280;DHT22;17097;50.916;5.344;2022-09-09T04:05:34;17.50;99.90
30280;DHT22;17097;50.916;5.344;2022-09-09T04:08:00;17.50;99.90
30280;DHT22;17097;50.916;5.344;2022-09-09T04:10:26;17.40;99.90
30280;DHT22;17097;50.916;5.344;2022-09-09T04:12:52;17.40;99.90
30280;DHT22;17097;50.916;5.344;2022-09-09T04:15:18;17.50;99.90
30280;DHT22;17097;50.916;5.344;2022-09-09T04:17:44;17.30;99.90
30280;DHT22;17097;50.916;5.344;2022-09-09T04:20:09;17.20;99.90
30280;DHT22;17097;50.916;5.344;2022-09-09T04:22:37;17.30;99.90
30280;DHT22;17097;50.916;5.344;2022-09-09T04:25:05;17.30;99.90
30280;DHT22;17097;50.916;5.344;2022-09-09T04:27:31;17.20;99.90
30280;DHT22;17097;50.916;5.344;2022-09-09T04:29:57;17.20;99.90
30280;DHT22;17097;50.916;5.344;2022-09-09T04:32:24;17.20;99.90
30280;DHT22;17097;50.916;5.344;2022-09-09T04:34:52;17.20;99.90
30280;DHT22;17097;50.916;5.344;2022-09-09T04:37:18;17.20;99.90
30280;DHT22;17097;50.916;5.344;2022-09-09T04:39:43;17.20;99.90
30280;DHT22;17097;50.916;5.344;2022-09-09T04:42:10;17.20;99.90
30280;DHT22;17097;50.916;5.344;2022-09-09T04:44:36;17.20;99.90
30280;DHT22;17097;50.916;5.344;2022-09-09T04:47:02;17.30;99.90
30280;DHT22;17097;50.916;5.344;2022-09-09T04:49:27;17.30;99.90
30280;DHT22;17097;50.916;5.344;2022-09-09T04:51:53;17.30;99.90
30280;DHT22;17097;50.916;5.344;2022-09-09T04:54:19;17.30;99.90
30280;DHT22;17097;50.916;5.344;2022-09-09T04:56:44;17.30;99.90
30280;DHT22;17097;50.916;5.344;2022-09-09T04:59:10;17.20;99.90
30280;DHT22;17097;50.916;5.344;2022-09-09T05:01:35;17.20;99.90
30280;DHT22;17097;50.916;5.344;2022-09-09T05:04:02;17.10;99.90
30280;DHT22;17097;50.916;5.344;2022-09-09T05:06:28;17.10;99.90
30280;DHT22;17097;50.916;5.344;2022-09-09T05:08:56;17.20;99.90
30280;DHT22;17097;50.916;5.344;2022-09-09T05:11:25;17.30;99.90
30280;DHT22;17097;50.916;5.344;2022-09-09T05:13:51;17.30;99.90
30280;DHT22;17097;50.916;5.344;2022-09-09T05:16:18;17.20;99.90
30280;DHT22;17097;50.916;5.344;2022-09-09T05:18:44;17.20;99.90
30280;DHT22;17097;50.916;5.344;2022-09-09T05:21:11;17.30;99.90
30280;DHT22;17097;50.916;5.344;2022-09-09T05:23:37;17.20;99.90
30280;DHT22;17097;50.916;5.344;2022-09-09T05:26:03;17.00;99.90
30280;DHT22;17097;50.916;5.344;2022-09-09T05:28:29;17.10;99.90
30280;DHT22;17097;50.916;5.344;2022-09-09T05:30:59;17.20;99.90
30280;DHT22;17097;50.916;5.344;2022-09-09T05:33:34;17.10;99.90
30280;DHT22;17097;50.916;5.344;2022-09-09T05:36:05;17.20;99.90
30280;DHT22;17097;50.916;5.344;2022-09-09T05:38:33;17.10;99.90
30280;DHT22;17097;50.916;5.344;2022-09-09T05:40:59;17.00;99.90
30280;DHT22;17097;50.916;5.344;2022-09-09T05:43:26;17.00;99.90
30280;DHT22;17097;50.916;5.344;2022-09-09T05:46:01;17.00;99.90
30280;DHT22;17097;50.916;5.344;2022-09-09T05:48:31;17.10;99.90
30280;DHT22;17097;50.916;5.344;2022-09-09T05:50:58;17.10;99.90
30280;DHT22;17097;50.916;5.344;2022-09-09T05:53:24;17.20;99.90
30280;DHT22;17097;50.916;5.344;2022-09-09T05:55:49;17.10;99.90
30280;DHT22;17097;50.916;5.344;2022-09-09T05:58:15;17.30;99.90
30280;DHT22;17097;50.916;5.344;2022-09-09T06:00:43;17.30;99.90
30280;DHT22;17097;50.916;5.344;2022-09-09T06:03:12;17.40;99.90
30280;DHT22;17097;50.916;5.344;2022-09-09T06:05:38;17.40;99.90
30280;DHT22;17097;50.916;5.344;2022-09-09T06:08:03;17.60;99.90
30280;DHT22;17097;50.916;5.344;2022-09-09T06:10:29;17.50;99.90
30280;DHT22;17097;50.916;5.344;2022-09-09T06:12:55;17.60;99.90
30280;DHT22;17097;50.916;5.344;2022-09-09T06:15:20;17.60;99.90
30280;DHT22;17097;50.916;5.344;2022-09-09T06:17:46;17.60;99.90
30280;DHT22;17097;50.916;5.344;2022-09-09T06:20:12;17.70;99.90
30280;DHT22;17097;50.916;5.344;2022-09-09T06:22:41;17.70;99.90
30280;DHT22;17097;50.916;5.344;2022-09-09T06:25:08;17.70;99.90
30280;DHT22;17097;50.916;5.344;2022-09-09T06:27:34;17.80;99.90
30280;DHT22;17097;50.916;5.344;2022-09-09T06:30:00;17.80;99.90
30280;DHT22;17097;50.916;5.344;2022-09-09T06:32:26;17.70;99.90
30280;DHT22;17097;50.916;5.344;2022-09-09T06:34:52;17.70;99.90
30280;DHT22;17097;50.916;5.344;2022-09-09T06:37:18;17.90;99.90
30280;DHT22;17097;50.916;5.344;2022-09-09T06:39:44;17.70;99.90
30280;DHT22;17097;50.916;5.344;2022-09-09T06:42:09;17.80;99.90
30280;DHT22;17097;50.916;5.344;2022-09-09T06:44:35;17.90;99.90
30280;DHT22;17097;50.916;5.344;2022-09-09T06:47:02;17.90;99.90
30280;DHT22;17097;50.916;5.344;2022-09-09T06:49:27;18.10;99.90
30280;DHT22;17097;50.916;5.344;2022-09-09T06:51:53;18.20;99.90
30280;DHT22;17097;50.916;5.344;2022-09-09T06:54:19;18.20;99.90
30280;DHT22;17097;50.916;5.344;2022-09-09T06:56:45;18.20;99.90
30280;DHT22;17097;50.916;5.344;2022-09-09T06:59:11;18.20;99.90
30280;DHT22;17097;50.916;5.344;2022-09-09T07:01:39;18.30;99.90
30280;DHT22;17097;50.916;5.344;2022-09-09T07:04:06;18.20;99.90
30280;DHT22;17097;50.916;5.344;2022-09-09T07:06:35;18.30;99.90
30280;DHT22;17097;50.916;5.344;2022-09-09T07:09:04;18.40;99.90
30280;DHT22;17097;50.916;5.344;2022-09-09T07:11:38;18.40;99.90
30280;DHT22;17097;50.916;5.344;2022-09-09T07:14:04;18.40;99.90
30280;DHT22;17097;50.916;5.344;2022-09-09T07:16:30;18.40;99.90
30280;DHT22;17097;50.916;5.344;2022-09-09T07:18:58;18.40;99.90
30280;DHT22;17097;50.916;5.344;2022-09-09T07:21:26;18.40;99.90
30280;DHT22;17097;50.916;5.344;2022-09-09T07:23:53;18.50;99.90
30280;DHT22;17097;50.916;5.344;2022-09-09T07:26:22;18.50;99.90
30280;DHT22;17097;50.916;5.344;2022-09-09T07:28:49;18.50;99.90
30280;DHT22;17097;50.916;5.344;2022-09-09T07:31:21;18.40;99.90
30280;DHT22;17097;50.916;5.344;2022-09-09T07:33:47;18.40;99.90
30280;DHT22;17097;50.916;5.344;2022-09-09T07:36:25;18.40;99.90
30280;DHT22;17097;50.916;5.344;2022-09-09T07:38:55;18.50;99.90
30280;DHT22;17097;50.916;5.344;2022-09-09T07:41:30;18.50;99.90
30280;DHT22;17097;50.916;5.344;2022-09-09T07:43:57;18.40;99.90
30280;DHT22;17097;50.916;5.344;2022-09-09T07:46:25;18.60;99.90
30280;DHT22;17097;50.916;5.344;2022-09-09T07:48:53;18.70;99.90
30280;DHT22;17097;50.916;5.344;2022-09-09T07:51:23;18.90;99.90
30280;DHT22;17097;50.916;5.344;2022-09-09T07:53:53;19.00;99.90
30280;DHT22;17097;50.916;5.344;2022-09-09T07:56:19;19.10;99.90
30280;DHT22;17097;50.916;5.344;2022-09-09T07:58:48;18.90;99.90
30280;DHT22;17097;50.916;5.344;2022-09-09T08:03:46;19.00;99.90
30280;DHT22;17097;50.916;5.344;2022-09-09T08:06:13;19.00;99.90
30280;DHT22;17097;50.916;5.344;2022-09-09T08:08:39;18.80;99.90
30280;DHT22;17097;50.916;5.344;2022-09-09T08:13:34;18.70;99.90
30280;DHT22;17097;50.916;5.344;2022-09-09T08:16:07;18.60;99.90
30280;DHT22;17097;50.916;5.344;2022-09-09T08:18:34;18.60;99.90
30280;DHT22;17097;50.916;5.344;2022-09-09T08:21:16;18.50;99.90
30280;DHT22;17097;50.916;5.344;2022-09-09T08:23:44;18.50;99.90
30280;DHT22;17097;50.916;5.344;2022-09-09T08:26:12;18.60;99.90
30280;DHT22;17097;50.916;5.344;2022-09-09T08:28:39;18.50;99.90
30280;DHT22;17097;50.916;5.344;2022-09-09T08:31:11;18.40;99.90
30280;DHT22;17097;50.916;5.344;2022-09-09T08:33:38;18.30;99.90
30280;DHT22;17097;50.916;5.344;2022-09-09T08:36:05;18.20;99.90
30280;DHT22;17097;50.916;5.344;2022-09-09T08:38:32;18.20;99.90
30280;DHT22;17097;50.916;5.344;2022-09-09T08:46:44;18.50;99.90
30280;DHT22;17097;50.916;5.344;2022-09-09T08:52:30;18.60;99.90
30280;DHT22;17097;50.916;5.344;2022-09-09T08:55:02;18.50;99.90
30280;DHT22;17097;50.916;5.344;2022-09-09T08:57:28;18.50;99.90
30280;DHT22;17097;50.916;5.344;2022-09-09T08:59:56;18.50;99.90
30280;DHT22;17097;50.916;5.344;2022-09-09T09:02:41;18.50;99.90
30280;DHT22;17097;50.916;5.344;2022-09-09T09:13:43;18.60;99.90
30280;DHT22;17097;50.916;5.344;2022-09-09T09:19:04;18.70;99.90
30280;DHT22;17097;50.916;5.344;2022-09-09T09:21:44;18.90;99.90
30280;DHT22;17097;50.916;5.344;2022-09-09T09:24:23;18.90;99.90
30280;DHT22;17097;50.916;5.344;2022-09-09T09:26:51;18.80;99.90
30280;DHT22;17097;50.916;5.344;2022-09-09T09:29:19;18.70;99.90
30280;DHT22;17097;50.916;5.344;2022-09-09T09:31:56;18.70;99.90
30280;DHT22;17097;50.916;5.344;2022-09-09T09:34:24;18.60;99.90
30280;DHT22;17097;50.916;5.344;2022-09-09T09:36:57;18.60;99.90
30280;DHT22;17097;50.916;5.344;2022-09-09T09:39:30;18.60;99.90
30280;DHT22;17097;50.916;5.344;2022-09-09T09:41:56;18.60;99.90
30280;DHT22;17097;50.916;5.344;2022-09-09T09:44:32;18.80;99.90
30280;DHT22;17097;50.916;5.344;2022-09-09T09:47:12;18.90;99.90
30280;DHT22;17097;50.916;5.344;2022-09-09T09:49:39;18.80;99.90
30280;DHT22;17097;50.916;5.344;2022-09-09T09:52:06;18.90;99.90
30280;DHT22;17097;50.916;5.344;2022-09-09T09:54:41;19.00;99.90
30280;DHT22;17097;50.916;5.344;2022-09-09T09:57:16;18.80;99.90
30280;DHT22;17097;50.916;5.344;2022-09-09T09:59:43;19.00;99.90
30280;DHT22;17097;50.916;5.344;2022-09-09T10:04:46;18.90;99.90
30280;DHT22;17097;50.916;5.344;2022-09-09T10:07:22;18.80;99.90
30280;DHT22;17097;50.916;5.344;2022-09-09T10:09:55;18.90;99.90
30280;DHT22;17097;50.916;5.344;2022-09-09T10:15:07;18.90;99.90
30280;DHT22;17097;50.916;5.344;2022-09-09T10:25:56;18.60;99.90
30280;DHT22;17097;50.916;5.344;2022-09-09T10:28:45;18.70;99.90
30280;DHT22;17097;50.916;5.344;2022-09-09T10:34:06;18.20;99.90
30280;DHT22;17097;50.916;5.344;2022-09-09T10:36:42;18.20;99.90
30280;DHT22;17097;50.916;5.344;2022-09-09T10:50:10;18.20;99.90
30280;DHT22;17097;50.916;5.344;2022-09-09T10:55:41;18.30;99.90
30280;DHT22;17097;50.916;5.344;2022-09-09T10:58:29;18.40;99.90
30280;DHT22;17097;50.916;5.344;2022-09-09T11:00:59;18.50;99.90
30280;DHT22;17097;50.916;5.344;2022-09-09T11:03:29;18.60;99.90
30280;DHT22;17097;50.916;5.344;2022-09-09T11:06:09;18.60;99.90
30280;DHT22;17097;50.916;5.344;2022-09-09T11:08:39;18.70;99.90
30280;DHT22;17097;50.916;5.344;2022-09-09T11:11:19;18.60;99.90
30280;DHT22;17097;50.916;5.344;2022-09-09T11:19:36;18.80;99.90
30280;DHT22;17097;50.916;5.344;2022-09-09T11:22:14;18.80;99.90
30280;DHT22;17097;50.916;5.344;2022-09-09T11:24:53;18.80;99.90
30280;DHT22;17097;50.916;5.344;2022-09-09T11:38:16;19.20;99.90
30280;DHT22;17097;50.916;5.344;2022-09-09T11:40:44;19.10;99.90
30280;DHT22;17097;50.916;5.344;2022-09-09T11:45:38;19.20;99.90
30280;DHT22;17097;50.916;5.344;2022-09-09T11:48:04;19.20;99.90
30280;DHT22;17097;50.916;5.344;2022-09-09T11:50:37;19.30;99.90
30280;DHT22;17097;50.916;5.344;2022-09-09T11:53:20;19.10;99.90
30280;DHT22;17097;50.916;5.344;2022-09-09T11:55:59;19.20;99.90
30280;DHT22;17097;50.916;5.344;2022-09-09T11:58:26;19.20;99.90
30280;DHT22;17097;50.916;5.344;2022-09-09T12:00:53;19.30;99.90
30280;DHT22;17097;50.916;5.344;2022-09-09T12:03:41;19.30;99.90
30280;DHT22;17097;50.916;5.344;2022-09-09T12:06:15;19.10;99.90
30280;DHT22;17097;50.916;5.344;2022-09-09T12:08:46;19.10;99.90
30280;DHT22;17097;50.916;5.344;2022-09-09T12:11:27;19.00;99.90
30280;DHT22;17097;50.916;5.344;2022-09-09T12:13:58;18.90;99.90
30280;DHT22;17097;50.916;5.344;2022-09-09T12:16:36;18.90;99.90
30280;DHT22;17097;50.916;5.344;2022-09-09T12:19:23;18.80;99.90
30280;DHT22;17097;50.916;5.344;2022-09-09T12:21:52;18.70;99.90
30280;DHT22;17097;50.916;5.344;2022-09-09T12:24:33;18.70;99.90
30280;DHT22;17097;50.916;5.344;2022-09-09T12:27:44;18.70;99.90
30280;DHT22;17097;50.916;5.344;2022-09-09T12:30:14;18.60;99.90
30280;DHT22;17097;50.916;5.344;2022-09-09T12:32:40;18.70;99.90
30280;DHT22;17097;50.916;5.344;2022-09-09T12:35:20;18.60;99.90
30280;DHT22;17097;50.916;5.344;2022-09-09T12:37:54;18.70;99.90
30280;DHT22;17097;50.916;5.344;2022-09-09T12:40:30;18.70;99.90
30280;DHT22;17097;50.916;5.344;2022-09-09T12:42:58;18.60;99.90
30280;DHT22;17097;50.916;5.344;2022-09-09T12:45:30;18.70;99.90
30280;DHT22;17097;50.916;5.344;2022-09-09T12:48:10;18.90;99.90
30280;DHT22;17097;50.916;5.344;2022-09-09T12:50:59;19.10;99.90
30280;DHT22;17097;50.916;5.344;2022-09-09T12:53:36;19.40;99.90
30280;DHT22;17097;50.916;5.344;2022-09-09T12:56:07;19.60;99.90
30280;DHT22;17097;50.916;5.344;2022-09-09T12:58:35;19.70;99.90
30280;DHT22;17097;50.916;5.344;2022-09-09T13:01:03;19.40;99.90
30280;DHT22;17097;50.916;5.344;2022-09-09T13:03:33;19.50;99.90
30280;DHT22;17097;50.916;5.344;2022-09-09T13:06:13;19.50;99.90
30280;DHT22;17097;50.916;5.344;2022-09-09T13:08:39;19.50;99.90
30280;DHT22;17097;50.916;5.344;2022-09-09T13:11:13;19.80;99.90
30280;DHT22;17097;50.916;5.344;2022-09-09T13:13:42;20.00;99.90
30280;DHT22;17097;50.916;5.344;2022-09-09T13:16:25;19.90;99.90
30280;DHT22;17097;50.916;5.344;2022-09-09T13:18:52;19.90;99.90
30280;DHT22;17097;50.916;5.344;2022-09-09T13:21:19;20.00;99.90
30280;DHT22;17097;50.916;5.344;2022-09-09T13:23:49;20.20;99.90
30280;DHT22;17097;50.916;5.344;2022-09-09T13:26:26;20.40;99.90
30280;DHT22;17097;50.916;5.344;2022-09-09T13:28:53;20.60;99.90
30280;DHT22;17097;50.916;5.344;2022-09-09T13:31:27;20.80;99.90
30280;DHT22;17097;50.916;5.344;2022-09-09T13:33:53;20.90;99.90
30280;DHT22;17097;50.916;5.344;2022-09-09T13:36:32;21.10;99.90
30280;DHT22;17097;50.916;5.344;2022-09-09T13:38:59;20.80;99.90
30280;DHT22;17097;50.916;5.344;2022-09-09T13:41:36;20.80;99.90
30280;DHT22;17097;50.916;5.344;2022-09-09T13:44:21;20.90;99.90
30280;DHT22;17097;50.916;5.344;2022-09-09T13:47:03;21.10;99.90
30280;DHT22;17097;50.916;5.344;2022-09-09T13:49:30;21.10;99.90
30280;DHT22;17097;50.916;5.344;2022-09-09T13:54:32;21.20;99.90
30280;DHT22;17097;50.916;5.344;2022-09-09T13:56:58;21.20;99.90
30280;DHT22;17097;50.916;5.344;2022-09-09T13:59:24;21.50;99.90
30280;DHT22;17097;50.916;5.344;2022-09-09T14:01:51;21.70;99.90
30280;DHT22;17097;50.916;5.344;2022-09-09T14:04:18;21.70;99.90
30280;DHT22;17097;50.916;5.344;2022-09-09T14:06:43;21.60;99.90
30280;DHT22;17097;50.916;5.344;2022-09-09T14:09:14;21.60;99.90
30280;DHT22;17097;50.916;5.344;2022-09-09T14:11:40;21.30;99.90
30280;DHT22;17097;50.916;5.344;2022-09-09T14:14:06;21.30;99.90
30280;DHT22;17097;50.916;5.344;2022-09-09T14:16:32;21.40;99.90
30280;DHT22;17097;50.916;5.344;2022-09-09T14:18:58;21.50;99.90
30280;DHT22;17097;50.916;5.344;2022-09-09T14:21:25;21.60;99.90
30280;DHT22;17097;50.916;5.344;2022-09-09T14:23:52;21.70;99.90
30280;DHT22;17097;50.916;5.344;2022-09-09T14:26:21;21.50;99.90
30280;DHT22;17097;50.916;5.344;2022-09-09T14:28:48;21.50;99.90
30280;DHT22;17097;50.916;5.344;2022-09-09T14:31:14;21.50;99.90
30280;DHT22;17097;50.916;5.344;2022-09-09T14:33:40;21.50;99.90
30280;DHT22;17097;50.916;5.344;2022-09-09T14:36:06;21.40;99.90
30280;DHT22;17097;50.916;5.344;2022-09-09T14:38:34;21.30;99.90
30280;DHT22;17097;50.916;5.344;2022-09-09T14:41:04;21.20;99.90
30280;DHT22;17097;50.916;5.344;2022-09-09T14:43:29;21.30;99.90
30280;DHT22;17097;50.916;5.344;2022-09-09T14:46:04;21.40;99.90
30280;DHT22;17097;50.916;5.344;2022-09-09T14:48:31;21.60;99.90
30280;DHT22;17097;50.916;5.344;2022-09-09T14:50:56;21.80;99.90
30280;DHT22;17097;50.916;5.344;2022-09-09T14:53:22;21.80;99.90
30280;DHT22;17097;50.916;5.344;2022-09-09T14:55:47;21.90;99.90
30280;DHT22;17097;50.916;5.344;2022-09-09T14:58:13;21.80;99.90
30280;DHT22;17097;50.916;5.344;2022-09-09T15:00:39;22.00;99.90
30280;DHT22;17097;50.916;5.344;2022-09-09T15:03:04;22.10;99.90
30280;DHT22;17097;50.916;5.344;2022-09-09T15:05:31;22.10;99.90
30280;DHT22;17097;50.916;5.344;2022-09-09T15:07:57;22.10;99.90
30280;DHT22;17097;50.916;5.344;2022-09-09T15:10:24;22.10;99.90
30280;DHT22;17097;50.916;5.344;2022-09-09T15:12:49;22.10;99.90
30280;DHT22;17097;50.916;5.344;2022-09-09T15:15:15;22.10;99.90
30280;DHT22;17097;50.916;5.344;2022-09-09T15:17:41;22.10;99.90
30280;DHT22;17097;50.916;5.344;2022-09-09T15:20:07;21.90;99.90
30280;DHT22;17097;50.916;5.344;2022-09-09T15:22:33;21.80;99.90
30280;DHT22;17097;50.916;5.344;2022-09-09T15:24:59;21.60;99.90
30280;DHT22;17097;50.916;5.344;2022-09-09T15:27:25;21.50;99.90
30280;DHT22;17097;50.916;5.344;2022-09-09T15:29:50;21.40;99.90
30280;DHT22;17097;50.916;5.344;2022-09-09T15:32:17;21.40;99.90
30280;DHT22;17097;50.916;5.344;2022-09-09T15:34:43;21.40;99.90
30280;DHT22;17097;50.916;5.344;2022-09-09T15:37:10;21.40;99.90
30280;DHT22;17097;50.916;5.344;2022-09-09T15:39:38;21.20;99.90
30280;DHT22;17097;50.916;5.344;2022-09-09T15:42:04;21.20;99.90
30280;DHT22;17097;50.916;5.344;2022-09-09T15:44:38;21.30;99.90
30280;DHT22;17097;50.916;5.344;2022-09-09T15:47:04;21.30;99.90
30280;DHT22;17097;50.916;5.344;2022-09-09T15:49:29;21.50;99.90
30280;DHT22;17097;50.916;5.344;2022-09-09T15:51:57;21.60;99.90
30280;DHT22;17097;50.916;5.344;2022-09-09T15:54:24;21.60;99.90
30280;DHT22;17097;50.916;5.344;2022-09-09T15:56:55;21.70;99.90
30280;DHT22;17097;50.916;5.344;2022-09-09T15:59:22;21.80;99.90
30280;DHT22;17097;50.916;5.344;2022-09-09T16:01:49;21.90;99.90
30280;DHT22;17097;50.916;5.344;2022-09-09T16:04:18;22.00;99.90
30280;DHT22;17097;50.916;5.344;2022-09-09T16:07:00;22.10;99.90
30280;DHT22;17097;50.916;5.344;2022-09-09T16:09:26;22.00;99.90
30280;DHT22;17097;50.916;5.344;2022-09-09T16:11:54;21.90;99.90
30280;DHT22;17097;50.916;5.344;2022-09-09T16:14:21;21.90;99.90
30280;DHT22;17097;50.916;5.344;2022-09-09T16:16:47;21.80;99.90
30280;DHT22;17097;50.916;5.344;2022-09-09T16:19:13;21.70;99.90
30280;DHT22;17097;50.916;5.344;2022-09-09T16:21:44;21.70;99.90
30280;DHT22;17097;50.916;5.344;2022-09-09T16:24:13;21.50;99.90
30280;DHT22;17097;50.916;5.344;2022-09-09T16:26:42;21.30;99.90
30280;DHT22;17097;50.916;5.344;2022-09-09T16:29:10;21.30;99.90
30280;DHT22;17097;50.916;5.344;2022-09-09T16:31:36;21.30;99.90
30280;DHT22;17097;50.916;5.344;2022-09-09T16:34:02;21.30;99.90
30280;DHT22;17097;50.916;5.344;2022-09-09T16:36:30;21.10;99.90
30280;DHT22;17097;50.916;5.344;2022-09-09T16:39:05;21.20;99.90
30280;DHT22;17097;50.916;5.344;2022-09-09T16:41:32;21.10;99.90
30280;DHT22;17097;50.916;5.344;2022-09-09T16:44:00;21.00;99.90
30280;DHT22;17097;50.916;5.344;2022-09-09T16:46:28;20.90;99.90
30280;DHT22;17097;50.916;5.344;2022-09-09T16:48:56;20.80;99.90
30280;DHT22;17097;50.916;5.344;2022-09-09T16:51:29;20.80;99.90
30280;DHT22;17097;50.916;5.344;2022-09-09T16:53:57;20.70;99.90
30280;DHT22;17097;50.916;5.344;2022-09-09T16:56:25;20.70;99.90
30280;DHT22;17097;50.916;5.344;2022-09-09T16:59:01;20.80;99.90
30280;DHT22;17097;50.916;5.344;2022-09-09T17:01:29;20.80;99.90
30280;DHT22;17097;50.916;5.344;2022-09-09T17:03:58;20.70;99.90
30280;DHT22;17097;50.916;5.344;2022-09-09T17:06:24;20.50;99.90
30280;DHT22;17097;50.916;5.344;2022-09-09T17:08:55;20.50;99.90
30280;DHT22;17097;50.916;5.344;2022-09-09T17:11:22;20.50;99.90
30280;DHT22;17097;50.916;5.344;2022-09-09T17:13:49;20.40;99.90
30280;DHT22;17097;50.916;5.344;2022-09-09T17:16:17;20.30;99.90
30280;DHT22;17097;50.916;5.344;2022-09-09T17:18:42;20.40;99.90
30280;DHT22;17097;50.916;5.344;2022-09-09T17:21:14;20.40;99.90
30280;DHT22;17097;50.916;5.344;2022-09-09T17:23:41;20.40;99.90
30280;DHT22;17097;50.916;5.344;2022-09-09T17:26:09;20.40;99.90
30280;DHT22;17097;50.916;5.344;2022-09-09T17:28:36;20.40;99.90
30280;DHT22;17097;50.916;5.344;2022-09-09T17:31:02;20.30;99.90
30280;DHT22;17097;50.916;5.344;2022-09-09T17:33:30;20.30;99.90
30280;DHT22;17097;50.916;5.344;2022-09-09T17:36:05;20.20;99.90
30280;DHT22;17097;50.916;5.344;2022-09-09T17:38:32;20.10;99.90
30280;DHT22;17097;50.916;5.344;2022-09-09T17:41:06;20.10;99.90
30280;DHT22;17097;50.916;5.344;2022-09-09T17:43:32;20.10;99.90
30280;DHT22;17097;50.916;5.344;2022-09-09T17:46:14;20.10;99.90
30280;DHT22;17097;50.916;5.344;2022-09-09T17:48:41;20.00;99.90
30280;DHT22;17097;50.916;5.344;2022-09-09T17:51:08;20.00;99.90